Time;durP1;ratioP1;P1;durP2;ratioP2;P2;SDS_P1;SDS_P2;PMS_P1;PMS_P2;Temp;Humidity;BMP_temperature;BMP_pressure;BME280_temperature;BME280_humidity;BME280_pressure;Samples;Min_cycle;Max_cycle;Signal;HPM_P1;HPM_P2
2022/11/18 00:01:59;;;;;;;45.72;35.88;;;;;;;11.02;100.00;98443.25;5045901;28;20938;-54
2022/11/18 00:04:26;;;;;;;37.20;32.57;;;;;;;11.12;100.00;98441.53;5055558;28;20201;-54
2022/11/18 00:06:53;;;;;;;43.33;32.77;;;;;;;11.08;100.00;98437.25;5054459;28;20187;-54
2022/11/18 00:09:20;;;;;;;41.10;32.23;;;;;;;11.10;100.00;98438.09;5054535;28;20189;-54
2022/11/18 00:14:32;;;;;;;42.22;37.40;;;;;;;11.06;100.00;98434.69;5053472;28;20809;-53
2022/11/18 00:17:01;;;;;;;37.37;31.50;;;;;;;11.01;100.00;98427.88;5054426;28;20565;-54
2022/11/18 00:19:29;;;;;;;35.83;31.97;;;;;;;10.90;100.00;98445.88;5054415;28;20661;-54
2022/11/18 00:21:57;;;;;;;38.50;30.73;;;;;;;10.92;100.00;98443.28;5054177;28;20640;-54
2022/11/18 00:24:24;;;;;;;34.50;30.83;;;;;;;10.87;100.00;98442.44;5054218;28;20658;-53
2022/11/18 00:26:52;;;;;;;35.37;29.70;;;;;;;10.87;100.00;98453.59;5054458;28;20215;-54
2022/11/18 00:29:19;;;;;;;36.60;29.57;;;;;;;10.80;100.00;98439.03;5054436;28;20242;-54
2022/11/18 00:31:47;;;;;;;36.60;30.13;;;;;;;10.84;100.00;98445.88;5054109;28;20697;-54
2022/11/18 00:34:16;;;;;;;46.33;31.60;;;;;;;10.74;100.00;98449.31;5054013;28;20630;-54
2022/11/18 00:36:44;;;;;;;41.13;30.13;;;;;;;10.69;100.00;98435.63;5054161;28;20192;-54
2022/11/18 00:39:12;;;;;;;37.63;30.23;;;;;;;10.24;100.00;98361.22;5053969;28;20184;-54
2022/11/18 00:44:23;;;;;;;39.57;28.60;;;;;;;10.67;100.00;98442.47;5054109;28;20555;-54
2022/11/18 00:46:51;;;;;;;37.75;30.50;;;;;;;10.66;100.00;98444.19;5054325;28;20431;-54
2022/11/18 00:49:18;;;;;;;33.20;29.60;;;;;;;10.76;100.00;98457.03;5053769;28;20188;-54
2022/11/18 00:51:45;;;;;;;39.87;27.77;;;;;;;10.71;100.00;98448.47;5053770;28;20196;-53
2022/11/18 00:54:12;;;;;;;33.10;28.20;;;;;;;10.66;100.00;98445.91;5053206;28;20192;-53
2022/11/18 00:56:39;;;;;;;33.87;27.73;;;;;;;10.58;100.00;98442.47;5053735;28;20617;-53
2022/11/18 00:59:06;;;;;;;34.40;29.98;;;;;;;10.70;100.00;98446.75;5053112;28;20439;-54
2022/11/18 01:01:32;;;;;;;29.27;25.60;;;;;;;10.65;100.00;98447.63;5053938;28;20224;-54
2022/11/18 01:04:01;;;;;;;48.37;27.43;;;;;;;10.64;100.00;98453.63;5053339;28;20188;-53
2022/11/18 01:06:28;;;;;;;37.43;27.63;;;;;;;10.63;100.00;98458.72;5053424;28;20192;-53
2022/11/18 01:08:54;;;;;;;37.17;28.00;;;;;;;10.63;100.00;98466.44;5053493;28;20188;-54
2022/11/18 01:14:06;;;;;;;39.53;28.50;;;;;;;10.57;100.00;98458.75;5053642;28;20617;-53
2022/11/18 01:16:32;;;;;;;40.97;27.43;;;;;;;10.47;100.00;98450.19;5053200;28;20192;-54
2022/11/18 01:19:01;;;;;;;39.60;28.17;;;;;;;10.47;100.00;98452.75;5053277;28;20245;-53
2022/11/18 01:21:29;;;;;;;42.10;27.80;;;;;;;10.50;100.00;98444.19;5053115;28;20681;-54
2022/11/18 01:23:55;;;;;;;38.17;28.13;;;;;;;10.55;100.00;98443.34;5053214;28;20671;-54
2022/11/18 01:26:22;;;;;;;56.07;28.63;;;;;;;10.57;100.00;98439.09;5050758;28;21814;-54
2022/11/18 01:28:49;;;;;;;46.97;27.17;;;;;;;10.63;100.00;98448.47;5041671;28;20280;-54
2022/11/18 01:31:19;;;;;;;66.73;27.50;;;;;;;10.68;100.00;98445.91;5033102;28;20247;-55
2022/11/18 01:33:46;;;;;;;47.83;31.77;;;;;;;10.78;100.00;98445.03;5032286;28;20932;-53
2022/11/18 01:36:18;;;;;;;46.13;26.50;;;;;;;10.83;100.00;98439.03;5032898;28;20195;-54
2022/11/18 01:38:45;;;;;;;44.00;27.43;;;;;;;10.82;100.00;98431.34;5032687;28;20193;-54
2022/11/18 01:41:12;;;;;;;87.73;30.07;;;;;;;10.68;100.00;98423.66;5032877;28;20191;-54
2022/11/18 01:43:54;;;;;;;48.33;28.50;;;;;;;10.83;100.00;98441.59;5032742;28;20227;-53
2022/11/18 01:46:23;;;;;;;64.90;27.83;;;;;;;10.80;100.00;98439.03;5032714;28;20193;-53
2022/11/18 01:48:54;;;;;;;64.90;25.53;;;;;;;10.82;100.00;98439.03;5032496;28;20200;-54
2022/11/18 01:51:29;;;;;;;46.80;28.70;;;;;;;10.72;100.00;98438.19;5057191;28;20548;-54
2022/11/18 01:54:00;;;;;;;65.93;27.67;;;;;;;10.79;100.00;98444.19;5072421;28;20183;-54
2022/11/18 01:56:37;;;;;;;50.57;28.73;;;;;;;10.76;100.00;98442.47;5072908;28;20196;-53
2022/11/18 01:59:08;;;;;;;43.87;28.60;;;;;;;10.78;100.00;98445.03;5072554;28;20195;-53
2022/11/18 02:01:34;;;;;;;40.83;26.60;;;;;;;10.79;100.00;98436.47;5072342;28;20652;-54
2022/11/18 02:04:01;;;;;;;56.67;28.77;;;;;;;10.80;100.00;98439.03;5072397;28;20245;-53
2022/11/18 02:06:29;;;;;;;48.70;27.70;;;;;;;10.81;100.00;98425.34;5072067;28;20186;-53
2022/11/18 02:08:57;;;;;;;44.83;27.40;;;;;;;10.84;100.00;98435.59;5064454;28;20200;-53
2022/11/18 02:14:09;;;;;;;32.53;25.70;;;;;;;10.73;100.00;98436.47;5051925;28;20207;-56
2022/11/18 02:16:53;;;;;;;40.40;27.60;;;;;;;10.69;100.00;98433.06;5052554;28;20257;-53
2022/11/18 02:19:41;;;;;;;40.00;30.48;;;;;;;10.79;100.00;98429.63;5051321;28;20438;-53
2022/11/18 02:22:25;;;;;;;39.83;26.10;;;;;;;10.80;100.00;98441.59;5051896;28;20230;-54
2022/11/18 02:24:59;;;;;;;52.90;29.67;;;;;;;10.73;100.00;98436.47;5052095;28;20188;-54
2022/11/18 02:27:54;;;;;;;50.07;28.50;;;;;;;10.68;100.00;98433.94;5051919;28;20318;-54
2022/11/18 02:30:23;;;;;;;46.70;30.13;;;;;;;10.64;100.00;98432.19;5051617;28;20473;-53
2022/11/18 02:32:57;;;;;;;42.27;27.30;;;;;;;10.72;100.00;98430.47;5052090;28;20717;-53
2022/11/18 02:35:30;;;;;;;37.57;24.77;;;;;;;10.71;100.00;98421.09;5051980;28;20200;-54
2022/11/18 02:38:00;;;;;;;45.93;24.87;;;;;;;10.66;100.00;98415.06;5052729;28;20191;-54
2022/11/18 02:40:31;;;;;;;44.97;26.00;;;;;;;10.47;100.00;98393.69;5051826;28;20195;-53
2022/11/18 02:43:04;;;;;;;43.07;25.83;;;;;;;10.66;100.00;98430.47;5052018;28;20220;-53
2022/11/18 02:45:34;;;;;;;46.50;25.63;;;;;;;10.70;100.00;98421.06;5051813;28;20203;-54
2022/11/18 02:48:04;;;;;;;43.80;25.93;;;;;;;10.77;100.00;98433.88;5051580;28;20192;-54
2022/11/18 02:50:34;;;;;;;37.30;26.57;;;;;;;10.79;100.00;98421.91;5051761;28;20192;-54
2022/11/18 02:53:04;;;;;;;35.70;25.43;;;;;;;10.82;100.00;98416.78;5051992;28;20192;-54
2022/11/18 02:55:34;;;;;;;35.10;27.07;;;;;;;10.82;100.00;98419.34;5051866;28;20566;-54
2022/11/18 02:58:03;;;;;;;36.30;25.63;;;;;;;10.75;100.00;98412.50;5052380;28;20184;-53
2022/11/18 03:00:32;;;;;;;35.80;24.53;;;;;;;10.79;100.00;98421.91;5051764;28;20196;-54
2022/11/18 03:02:59;;;;;;;31.93;26.13;;;;;;;10.80;100.00;98425.31;5051633;28;20219;-53
2022/11/18 03:05:34;;;;;;;35.67;28.05;;;;;;;10.85;100.00;98426.19;5051023;28;20432;-53
2022/11/18 03:08:08;;;;;;;33.57;25.93;;;;;;;10.86;100.00;98427.88;5051979;28;20341;-54
2022/11/18 03:10:43;;;;;;;44.43;26.40;;;;;;;10.78;100.00;98433.03;5051653;28;20677;-54
2022/11/18 03:13:21;;;;;;;32.97;24.20;;;;;;;10.79;100.00;98437.34;5067915;28;20194;-54
2022/11/18 03:15:57;;;;;;;48.00;27.20;;;;;;;10.76;100.00;98431.34;5072765;28;20771;-53
2022/11/18 03:18:31;;;;;;;43.33;24.97;;;;;;;10.64;100.00;98432.19;5075934;28;20248;-54
2022/11/18 03:21:04;;;;;;;36.53;25.03;;;;;;;10.60;100.00;98431.34;5075624;28;20194;-54
2022/11/18 03:23:36;;;;;;;38.93;25.60;;;;;;;10.57;100.00;98430.50;5075422;28;20245;-54
2022/11/18 03:26:06;;;;;;;48.90;27.17;;;;;;;10.53;100.00;98428.78;5076013;28;20222;-54
2022/11/18 03:28:39;;;;;;;53.10;28.60;;;;;;;10.56;100.00;98427.09;5075284;28;20260;-54
2022/11/18 03:31:14;;;;;;;45.53;26.10;;;;;;;10.36;100.00;98430.50;5075332;28;20199;-54
2022/11/18 03:33:47;;;;;;;53.83;25.70;;;;;;;10.17;100.00;98433.91;5075315;28;20191;-54
2022/11/18 03:36:16;;;;;;;54.90;27.57;;;;;;;10.15;100.00;98433.94;5075323;28;20188;-54
2022/11/18 03:38:48;;;;;;;43.57;26.87;;;;;;;10.16;100.00;98443.34;5075255;28;20297;-54
2022/11/18 03:41:17;;;;;;;58.67;27.57;;;;;;;10.01;100.00;98440.72;5075312;28;20566;-54
2022/11/18 03:43:49;;;;;;;52.50;26.27;;;;;;;9.88;100.00;98442.41;5075109;28;20223;-54
2022/11/18 03:46:21;;;;;;;73.97;29.73;;;;;;;9.90;100.00;98443.28;5075155;28;20229;-54
2022/11/18 03:48:51;;;;;;;81.87;28.90;;;;;;;9.76;100.00;98450.06;5075059;28;20672;-54
2022/11/18 03:51:22;;;;;;;63.37;28.67;;;;;;;9.87;100.00;98456.09;5075211;28;20333;-54
2022/11/18 03:53:53;;;;;;;70.30;29.27;;;;;;;9.92;100.00;98459.50;5075041;28;20207;-54
2022/11/18 03:56:27;;;;;;;55.87;29.83;;;;;;;9.94;100.00;98467.25;5073272;28;20188;-55
2022/11/18 03:59:00;;;;;;;46.30;27.57;;;;;;;9.92;100.00;98476.63;5066832;28;20285;-54
2022/11/18 04:01:34;;;;;;;47.57;28.70;;;;;;;9.77;100.00;98469.75;5074901;28;20194;-54
2022/11/18 04:04:01;;;;;;;54.20;33.17;;;;;;;9.86;100.00;98463.78;5073799;28;20527;-54
2022/11/18 04:06:36;;;;;;;48.57;30.47;;;;;;;9.89;100.00;98451.81;5075090;28;20195;-54
2022/11/18 04:09:09;;;;;;;56.07;28.73;;;;;;;10.07;100.00;98471.53;5074823;28;20190;-54
2022/11/18 04:14:26;;;;;;;50.77;29.10;;;;;;;10.14;100.00;98467.28;5074614;28;20668;-54
2022/11/18 04:16:55;;;;;;;53.50;29.30;;;;;;;10.21;100.00;98462.19;5074901;28;20187;-54
2022/11/18 04:19:21;;;;;;;44.97;26.20;;;;;;;10.21;100.00;98472.44;5074447;28;20612;-54
2022/11/18 04:21:49;;;;;;;51.20;28.70;;;;;;;10.26;100.00;98469.88;5074445;28;20195;-54
2022/11/18 04:24:16;;;;;;;66.90;25.43;;;;;;;10.21;100.00;98467.31;5074444;28;20302;-54
2022/11/18 04:26:43;;;;;;;47.03;24.63;;;;;;;10.28;100.00;98486.13;5074468;28;20187;-54
2022/11/18 04:29:10;;;;;;;46.50;28.00;;;;;;;10.25;100.00;98479.28;5073321;28;20576;-54
2022/11/18 04:31:36;;;;;;;48.97;25.70;;;;;;;10.32;100.00;98475.88;5074071;28;20230;-55
2022/11/18 04:34:05;;;;;;;57.23;27.77;;;;;;;10.42;100.00;98482.72;5074324;28;20260;-54
2022/11/18 04:36:31;;;;;;;54.50;25.00;;;;;;;10.45;100.00;98484.44;5074195;28;20191;-54
2022/11/18 04:38:58;;;;;;;55.97;30.45;;;;;;;10.51;100.00;98487.88;5073304;28;20499;-55
2022/11/18 04:41:54;;;;;;;49.83;27.27;;;;;;;10.55;100.00;98484.44;5071049;28;20535;-55
2022/11/18 04:44:12;;;;;;;53.53;27.67;;;;;;;10.56;100.00;98478.44;5073872;28;20214;-54
2022/11/18 04:46:40;;;;;;;66.43;29.00;;;;;;;10.57;100.00;98474.19;5049334;28;20223;-54
2022/11/18 04:49:10;;;;;;;47.43;30.33;;;;;;;10.58;100.00;98471.59;5035437;28;20196;-55
2022/11/18 04:51:37;;;;;;;61.67;31.90;;;;;;;10.68;100.00;98485.31;5033642;28;20647;-54
2022/11/18 04:54:04;;;;;;;58.27;31.57;;;;;;;10.74;100.00;98497.28;5033865;28;20193;-54
2022/11/18 04:56:31;;;;;;;56.67;29.87;;;;;;;10.76;100.00;98493.84;5040030;28;20200;-54
2022/11/18 04:58:59;;;;;;;53.20;29.50;;;;;;;10.59;100.00;98457.03;5050522;28;20196;-54
2022/11/18 05:01:26;;;;;;;53.23;29.10;;;;;;;10.80;100.00;98487.84;5040692;28;20286;-55
2022/11/18 05:03:53;;;;;;;43.50;30.37;;;;;;;10.82;100.00;98486.16;5038672;28;20212;-58
2022/11/18 05:06:22;;;;;;;45.97;32.07;;;;;;;10.83;100.00;98480.13;5057568;28;20195;-57
2022/11/18 05:08:49;;;;;;;53.50;33.77;;;;;;;10.83;100.00;98480.13;5046849;28;20204;-55
2022/11/18 05:14:01;;;;;;;55.77;31.83;;;;;;;10.71;100.00;98461.31;5039354;28;20208;-53
2022/11/18 05:16:27;;;;;;;48.73;32.07;;;;;;;10.63;100.00;98451.03;5043581;28;20566;-55
2022/11/18 05:18:54;;;;;;;54.93;27.47;;;;;;;10.74;100.00;98476.72;5050882;28;20648;-55
2022/11/18 05:21:22;;;;;;;55.97;30.43;;;;;;;10.77;100.00;98481.88;5051575;28;20184;-53
2022/11/18 05:23:49;;;;;;;52.43;28.17;;;;;;;10.77;100.00;98481.88;5048145;28;20831;-54
2022/11/18 05:26:16;;;;;;;41.97;32.57;;;;;;;10.81;100.00;98473.28;5050199;28;20431;-54
2022/11/18 05:28:43;;;;;;;35.47;27.33;;;;;;;10.88;100.00;98483.53;5052600;28;20681;-54
2022/11/18 05:31:13;;;;;;;45.27;26.93;;;;;;;10.83;100.00;98480.13;5052413;28;20200;-54
2022/11/18 05:33:40;;;;;;;47.20;29.27;;;;;;;10.84;100.00;98483.56;5042048;28;20196;-53
2022/11/18 05:36:09;;;;;;;43.67;30.27;;;;;;;10.83;100.00;98477.56;5052796;28;20195;-54
2022/11/18 05:38:38;;;;;;;44.00;28.83;;;;;;;10.80;100.00;98479.28;5052952;28;20663;-53
2022/11/18 05:41:05;;;;;;;54.67;29.73;;;;;;;10.64;100.00;98489.56;5055637;28;20188;-55
2022/11/18 05:43:32;;;;;;;56.47;29.50;;;;;;;10.65;100.00;98493.88;5052592;28;20220;-54
2022/11/18 05:46:00;;;;;;;62.73;30.67;;;;;;;10.72;100.00;98492.13;5052756;28;20204;-54
2022/11/18 05:48:27;;;;;;;53.87;29.63;;;;;;;10.76;100.00;98496.44;5037905;28;20197;-54
2022/11/18 05:50:55;;;;;;;59.50;32.77;;;;;;;10.78;100.00;98493.84;5036217;28;20188;-55
2022/11/18 05:53:23;;;;;;;66.57;32.47;;;;;;;10.80;100.00;98502.41;5051379;28;20199;-55
2022/11/18 05:55:57;;;;;;;55.77;28.97;;;;;;;10.79;100.00;98499.00;5051857;28;20246;-55
2022/11/18 05:58:24;;;;;;;55.23;30.23;;;;;;;10.83;100.00;98502.41;5061521;28;20187;-55
2022/11/18 06:00:54;;;;;;;55.07;29.73;;;;;;;10.77;100.00;98503.25;5068407;28;20194;-55
2022/11/18 06:03:25;;;;;;;59.40;26.87;;;;;;;10.79;100.00;98503.28;5070605;28;20223;-55
2022/11/18 06:05:54;;;;;;;50.13;29.10;;;;;;;10.88;100.00;98504.09;5070401;28;20187;-54
2022/11/18 06:08:25;;;;;;;69.27;33.63;;;;;;;10.92;100.00;98510.09;5072146;28;20195;-54
2022/11/18 06:10:53;;;;;;;66.45;38.15;;;;;;;11.02;100.00;98511.78;5071435;28;20438;-54
2022/11/18 06:13:26;;;;;;;66.70;34.83;;;;;;;11.08;100.00;98525.50;5071133;28;20194;-55
2022/11/18 06:15:53;;;;;;;67.67;33.97;;;;;;;11.09;100.00;98516.09;5070037;28;20841;-55
2022/11/18 06:18:24;;;;;;;56.03;34.47;;;;;;;11.03;100.00;98514.38;5070596;28;20192;-55
2022/11/18 06:20:53;;;;;;;54.57;33.23;;;;;;;11.05;100.00;98519.50;5070903;28;20188;-54
2022/11/18 06:23:20;;;;;;;61.03;36.43;;;;;;;11.07;100.00;98512.69;5070647;28;20716;-56
2022/11/18 06:25:47;;;;;;;55.10;36.67;;;;;;;11.10;100.00;98505.78;5070860;28;20194;-55
2022/11/18 06:28:16;;;;;;;60.87;40.47;;;;;;;11.04;100.00;98490.38;5071007;28;20187;-54
2022/11/18 06:30:43;;;;;;;62.87;41.60;;;;;;;11.19;100.00;98507.50;5071382;28;20191;-54
2022/11/18 06:33:10;;;;;;;60.07;42.53;;;;;;;11.21;100.00;98501.47;5071364;28;20230;-54
2022/11/18 06:35:37;;;;;;;56.10;40.53;;;;;;;11.10;100.00;98498.06;5071345;28;20183;-54
2022/11/18 06:38:04;;;;;;;54.67;39.20;;;;;;;11.11;100.00;98497.22;5071985;28;20187;-54
2022/11/18 06:40:31;;;;;;;57.57;41.27;;;;;;;11.21;100.00;98511.78;5071912;28;20249;-54
2022/11/18 06:46:54;;;;;;;48.80;36.90;;;;;;;11.26;100.00;98510.03;5071141;28;20578;-54
2022/11/18 06:48:31;;;;;;;58.87;40.13;;;;;;;11.24;100.00;98510.91;5071383;28;20192;-55
2022/11/18 06:50:58;;;;;;;57.30;37.83;;;;;;;11.30;100.00;98503.19;5070898;28;20231;-55
2022/11/18 06:53:24;;;;;;;61.33;37.47;;;;;;;11.29;100.00;98506.59;5067981;28;20270;-55
2022/11/18 06:55:51;;;;;;;62.55;40.00;;;;;;;11.30;100.00;98512.59;5060187;28;20461;-56
2022/11/18 06:58:18;;;;;;;57.47;38.93;;;;;;;11.34;100.00;98504.03;5071317;28;20279;-55
2022/11/18 07:00:46;;;;;;;62.57;40.77;;;;;;;11.35;100.00;98498.00;5069649;28;20253;-55
2022/11/18 07:03:13;;;;;;;68.07;40.67;;;;;;;11.36;100.00;98507.44;5064765;28;20219;-55
2022/11/18 07:05:40;;;;;;;70.80;42.17;;;;;;;11.40;100.00;98496.31;5071123;28;20192;-55
2022/11/18 07:08:06;;;;;;;66.00;39.33;;;;;;;11.44;100.00;98492.84;5070943;28;20184;-55
2022/11/18 07:10:33;;;;;;;62.40;36.80;;;;;;;11.49;100.00;98497.13;5071136;28;20196;-55
2022/11/18 07:13:00;;;;;;;70.27;36.90;;;;;;;11.50;100.00;98485.13;5071411;28;20195;-55
2022/11/18 07:15:27;;;;;;;61.93;35.07;;;;;;;11.52;100.00;98480.81;5063949;28;20684;-55
2022/11/18 07:17:55;;;;;;;69.77;35.77;;;;;;;11.60;100.00;98477.34;5039489;28;20193;-55
2022/11/18 07:20:22;;;;;;;73.07;33.77;;;;;;;11.52;100.00;98473.09;5030914;28;20188;-55
2022/11/18 07:22:52;;;;;;;64.97;32.90;;;;;;;11.50;100.00;98469.69;5031055;28;20185;-57
2022/11/18 07:25:19;;;;;;;58.37;30.80;;;;;;;11.55;100.00;98478.22;5041039;28;20208;-55
2022/11/18 07:27:46;;;;;;;57.47;29.80;;;;;;;11.59;100.00;98474.81;5030818;28;20698;-55
2022/11/18 07:30:13;;;;;;;60.70;30.70;;;;;;;11.50;100.00;98491.13;5030803;28;20193;-56
2022/11/18 07:32:40;;;;;;;55.03;31.63;;;;;;;11.53;100.00;98491.13;5031316;28;20259;-55
2022/11/18 07:35:09;;;;;;;49.00;29.77;;;;;;;11.56;100.00;98495.41;5031171;28;20662;-55
2022/11/18 07:37:36;;;;;;;60.90;33.97;;;;;;;11.46;100.00;98493.69;5031523;28;20200;-55
2022/11/18 07:40:03;;;;;;;76.43;36.97;;;;;;;11.60;100.00;98485.06;5031240;28;20185;-55
2022/11/18 07:42:41;;;;;;;82.13;39.43;;;;;;;11.72;100.00;98495.34;5030926;28;20233;-56
2022/11/18 07:45:10;;;;;;;93.00;44.63;;;;;;;11.79;100.00;98507.31;5030863;28;20212;-55
2022/11/18 07:47:36;;;;;;;80.63;42.30;;;;;;;11.81;100.00;98507.34;5033681;28;20193;-55
2022/11/18 07:50:04;;;;;;;86.37;40.50;;;;;;;11.88;100.00;98506.44;5050786;28;20262;-55
2022/11/18 07:52:32;;;;;;;80.03;41.77;;;;;;;11.87;100.00;98515.00;5054632;28;20188;-54
2022/11/18 07:54:59;;;;;;;80.13;46.00;;;;;;;11.91;100.00;98502.97;5058909;28;20828;-55
2022/11/18 07:57:25;;;;;;;84.70;43.17;;;;;;;11.99;100.00;98502.09;5048352;28;20792;-55
2022/11/18 07:59:52;;;;;;;72.70;39.60;;;;;;;12.02;100.00;98499.50;5042353;28;20583;-55
2022/11/18 08:02:19;;;;;;;65.83;36.97;;;;;;;11.98;100.00;98492.63;5055870;28;20204;-54
2022/11/18 08:04:46;;;;;;;64.73;38.00;;;;;;;12.02;100.00;98493.47;5071533;28;20668;-55
2022/11/18 08:07:13;;;;;;;65.03;37.90;;;;;;;12.15;100.00;98487.38;5074321;28;20191;-55
2022/11/18 08:09:41;;;;;;;64.53;38.97;;;;;;;12.27;100.00;98490.75;5074482;28;20195;-55
2022/11/18 08:12:08;;;;;;;61.77;40.07;;;;;;;12.25;100.00;98479.59;5064420;28;20200;-55
2022/11/18 08:14:35;;;;;;;64.73;40.27;;;;;;;12.31;100.00;98483.84;5053532;28;20207;-56
2022/11/18 08:17:02;;;;;;;65.77;38.87;;;;;;;12.36;100.00;98482.13;5053680;28;20185;-54
2022/11/18 08:19:28;;;;;;;59.63;38.50;;;;;;;12.33;100.00;98488.13;5053666;28;20262;-56
2022/11/18 08:21:55;;;;;;;64.60;39.87;;;;;;;12.30;100.00;98495.03;5052017;28;20199;-56
2022/11/18 08:24:22;;;;;;;71.23;41.80;;;;;;;12.30;99.87;98495.91;5052622;28;20450;-55
2022/11/18 08:26:50;;;;;;;59.50;38.43;;;;;;;12.32;99.63;98496.72;5053376;28;20692;-56
2022/11/18 08:29:17;;;;;;;63.53;38.63;;;;;;;12.30;99.42;98487.31;5054066;28;20199;-55
2022/11/18 08:31:44;;;;;;;62.30;36.80;;;;;;;12.34;99.64;98484.69;5053807;28;20235;-55
2022/11/18 08:34:11;;;;;;;60.60;37.27;;;;;;;12.20;99.63;98460.75;5047521;28;20200;-55
2022/11/18 08:36:38;;;;;;;63.07;38.23;;;;;;;12.36;99.48;98482.94;5053874;28;20192;-55
2022/11/18 08:39:07;;;;;;;64.00;39.40;;;;;;;12.22;98.92;98492.47;5053764;28;20236;-56
2022/11/18 08:41:36;;;;;;;67.87;38.17;;;;;;;12.14;99.12;98478.81;5054104;28;20189;-56
2022/11/18 08:44:06;;;;;;;63.30;38.17;;;;;;;12.36;99.48;98488.09;5067012;28;20216;-55
2022/11/18 08:46:33;;;;;;;51.53;34.67;;;;;;;12.37;98.46;98484.66;5073242;28;20651;-57
2022/11/18 08:49:00;;;;;;;57.50;35.77;;;;;;;12.29;98.68;98477.84;5056593;28;20208;-55
2022/11/18 08:51:27;;;;;;;57.37;38.10;;;;;;;12.49;98.93;98488.03;5053673;28;20215;-55
2022/11/18 08:53:54;;;;;;;60.70;38.67;;;;;;;12.61;98.81;98487.94;5051046;28;20200;-56
2022/11/18 08:56:23;;;;;;;67.83;39.60;;;;;;;12.62;97.98;98479.31;5037830;28;20280;-55
2022/11/18 08:58:50;;;;;;;60.03;39.80;;;;;;;12.64;98.21;98478.44;5072879;28;20196;-56
2022/11/18 09:01:18;;;;;;;61.40;39.10;;;;;;;12.63;98.73;98496.50;5073801;28;20192;-55
2022/11/18 09:03:46;;;;;;;58.33;37.03;;;;;;;12.63;97.87;98486.19;5071022;28;20226;-56
2022/11/18 09:06:15;;;;;;;68.97;39.87;;;;;;;12.61;97.48;98473.31;5070921;28;20254;-57
2022/11/18 09:08:42;;;;;;;70.03;42.70;;;;;;;12.68;97.45;98474.13;5071340;28;20188;-56
2022/11/18 09:11:12;;;;;;;62.90;40.17;;;;;;;12.68;96.75;98461.25;5071423;28;20668;-56
2022/11/18 09:13:40;;;;;;;84.00;53.83;;;;;;;12.77;96.92;98456.84;5071143;28;20189;-56
2022/11/18 09:16:07;;;;;;;69.80;43.83;;;;;;;12.76;97.06;98431.09;5070198;28;20191;-57
2022/11/18 09:18:36;;;;;;;67.50;42.63;;;;;;;12.77;97.10;98405.28;5068006;28;20196;-57
2022/11/18 09:21:04;;;;;;;75.23;45.00;;;;;;;13.06;97.06;98438.53;5067983;28;20207;-56
2022/11/18 09:23:32;;;;;;;83.50;44.73;;;;;;;13.23;97.25;98438.38;5072891;28;20192;-56
2022/11/18 09:25:59;;;;;;;74.33;42.80;;;;;;;13.35;95.43;98439.06;5073324;28;20192;-56
2022/11/18 09:28:26;;;;;;;77.10;44.73;;;;;;;13.32;94.67;98428.78;5070231;28;20263;-56
2022/11/18 09:30:53;;;;;;;71.60;43.87;;;;;;;13.37;94.48;98421.88;5072293;28;20251;-56
2022/11/18 09:33:19;;;;;;;66.97;42.80;;;;;;;13.29;93.37;98433.16;5072890;28;20229;-56
2022/11/18 09:35:48;;;;;;;82.77;44.17;;;;;;;13.04;94.19;98409.31;5057079;28;20261;-56
2022/11/18 09:38:15;;;;;;;75.27;44.87;;;;;;;12.99;94.29;98418.84;5052660;28;20195;-56
2022/11/18 09:40:49;;;;;;;73.17;45.73;;;;;;;13.00;95.01;98415.38;5045882;28;20192;-56
2022/11/18 09:43:22;;;;;;;78.43;44.80;;;;;;;13.00;95.73;98395.59;5041500;28;20199;-56
2022/11/18 09:45:58;;;;;;;82.00;46.93;;;;;;;13.13;96.17;98409.22;5072537;28;20636;-56
2022/11/18 09:49:11;;;;;;;82.20;47.13;;;;;;;13.00;96.26;98402.47;5072404;28;20183;-56
2022/11/18 09:51:14;;;;;;;80.33;46.60;;;;;;;13.19;97.11;98396.28;5071824;28;20187;-56
2022/11/18 09:53:43;;;;;;;78.63;46.30;;;;;;;13.16;95.50;98380.84;5071931;28;20203;-56
2022/11/18 09:56:14;;;;;;;83.57;48.80;;;;;;;13.03;95.94;98374.09;5071861;28;20274;-56
2022/11/18 09:58:41;;;;;;;82.80;45.00;;;;;;;13.00;96.66;98368.97;5072057;28;20192;-56
2022/11/18 10:01:13;;;;;;;87.23;47.07;;;;;;;13.15;97.45;98373.13;5072329;28;20191;-56
2022/11/18 10:03:40;;;;;;;77.07;46.57;;;;;;;13.24;97.01;98378.19;5072334;28;20638;-56
2022/11/18 10:06:18;;;;;;;77.90;46.40;;;;;;;13.00;96.61;98301.94;5043685;28;20196;-56
2022/11/18 10:08:57;;;;;;;72.73;43.20;;;;;;;13.42;96.03;98376.22;5070649;28;20726;-57
2022/11/18 10:11:26;;;;;;;71.73;42.03;;;;;;;13.15;95.61;98379.16;5071657;28;20215;-56
2022/11/18 10:14:04;;;;;;;76.13;43.60;;;;;;;13.20;96.32;98373.91;5071561;28;20188;-56
2022/11/18 10:16:42;;;;;;;76.23;45.77;;;;;;;13.32;96.88;98368.63;5072272;28;20206;-55
2022/11/18 10:19:24;;;;;;;82.47;50.13;;;;;;;13.37;96.45;98365.13;5071974;28;20211;-56
2022/11/18 10:22:13;;;;;;;78.50;43.83;;;;;;;13.34;95.99;98364.28;5069121;28;20200;-56
2022/11/18 10:24:43;;;;;;;78.60;44.07;;;;;;;13.38;97.31;98371.09;5051363;28;20234;-56
2022/11/18 10:27:11;;;;;;;68.70;43.27;;;;;;;13.48;97.78;98358.09;5050762;28;20242;-55
2022/11/18 10:29:38;;;;;;;66.83;41.87;;;;;;;13.56;97.64;98366.56;5051327;28;20277;-56
2022/11/18 10:32:07;;;;;;;71.67;40.73;;;;;;;13.51;96.51;98345.09;5051819;28;20268;-55
2022/11/18 10:34:45;;;;;;;67.27;41.17;;;;;;;13.27;96.36;98291.28;5051729;28;20716;-55
2022/11/18 10:37:24;;;;;;;74.82;47.80;;;;;;;13.63;97.02;98328.59;5050321;28;20435;-56
2022/11/18 10:39:53;;;;;;;74.38;46.30;;;;;;;13.78;96.67;98327.53;5050421;28;20438;-56
2022/11/18 10:42:27;;;;;;;73.43;42.33;;;;;;;13.90;95.45;98328.19;5051293;28;20203;-56
2022/11/18 10:44:54;;;;;;;75.47;40.07;;;;;;;13.89;95.04;98323.06;5051565;28;20221;-56
2022/11/18 10:47:27;;;;;;;63.90;37.63;;;;;;;13.90;95.24;98329.94;5050800;28;20205;-55
2022/11/18 10:49:55;;;;;;;71.40;39.20;;;;;;;13.11;95.29;98199.53;5050945;28;20202;-55
2022/11/18 10:52:24;;;;;;;75.47;42.27;;;;;;;13.82;95.92;98321.44;5050783;28;20196;-55
2022/11/18 10:55:18;;;;;;;74.17;43.33;;;;;;;13.78;96.28;98325.81;5050533;28;20741;-55
2022/11/18 10:57:47;;;;;;;74.70;42.40;;;;;;;13.55;96.70;98330.44;5051425;28;20275;-55
2022/11/18 11:00:33;;;;;;;78.33;47.30;;;;;;;13.38;97.71;98334.97;5050946;28;20188;-55
2022/11/18 11:03:00;;;;;;;88.73;47.73;;;;;;;13.44;98.24;98322.88;5051294;28;20307;-55
2022/11/18 11:05:27;;;;;;;93.17;48.93;;;;;;;13.41;98.43;98319.47;5050492;28;20706;-55
2022/11/18 11:08:03;;;;;;;96.57;51.50;;;;;;;13.50;98.46;98317.63;5050904;28;20199;-55
2022/11/18 11:10:30;;;;;;;93.33;51.60;;;;;;;13.51;97.96;98316.72;5051522;28;20273;-55
2022/11/18 11:13:01;;;;;;;86.50;48.40;;;;;;;13.50;98.03;98317.63;5051050;28;20566;-55
2022/11/18 11:15:36;;;;;;;86.90;48.70;;;;;;;13.32;98.00;98312.69;5051140;28;20199;-55
2022/11/18 11:20:52;;;;;;;93.17;49.87;;;;;;;13.30;98.87;98285.22;5051349;28;20221;-55
2022/11/18 11:23:20;;;;;;;78.37;48.10;;;;;;;13.39;98.92;98295.41;5051461;28;20194;-55
2022/11/18 11:25:54;;;;;;;93.43;50.80;;;;;;;13.45;99.30;98287.59;5050924;28;20221;-55
2022/11/18 11:28:28;;;;;;;86.97;47.53;;;;;;;13.54;99.33;98292.63;5051096;28;20197;-56
2022/11/18 11:31:16;;;;;;;86.13;47.87;;;;;;;13.59;99.55;98291.69;5050872;28;20654;-55
2022/11/18 11:33:51;;;;;;;87.07;47.63;;;;;;;13.60;98.54;98290.78;5051170;28;20652;-55
2022/11/18 11:36:32;;;;;;;81.07;47.87;;;;;;;13.46;98.58;98284.97;5051097;28;20195;-55
2022/11/18 11:39:17;;;;;;;86.17;49.83;;;;;;;13.65;98.36;98271.81;5054787;28;20243;-55
2022/11/18 11:41:54;;;;;;;85.80;47.87;;;;;;;13.80;98.06;98280.16;5054511;28;20195;-55
2022/11/18 11:44:34;;;;;;;89.07;49.00;;;;;;;13.93;97.52;98293.72;5037974;28;20193;-56
2022/11/18 11:50:02;;;;;;;73.03;42.03;;;;;;;13.77;96.03;98254.41;5034930;28;20195;-55